Time;durP1;ratioP1;P1;durP2;ratioP2;P2;SDS_P1;SDS_P2;PMS_P1;PMS_P2;Temp;Humidity;BMP_temperature;BMP_pressure;BME280_temperature;BME280_humidity;BME280_pressure;Samples;Min_cycle;Max_cycle;Signal;HPM_P1;HPM_P2
2023/12/27 00:02:10;;;;;;;4.73;1.77;;;;;;;4.07;100.00;102043.94;4834815;29;20038;-95
2023/12/27 00:08:44;;;;;;;2.53;1.63;;;;;;;3.99;100.00;102030.00;4794708;29;20178;-93
2023/12/27 00:12:05;;;;;;;4.17;1.53;;;;;;;3.96;100.00;102029.94;4767586;30;20047;-93
2023/12/27 00:14:51;;;;;;;2.60;1.50;;;;;;;3.88;100.00;102019.50;4764526;30;20059;-94
2023/12/27 00:17:37;;;;;;;2.93;1.40;;;;;;;3.83;100.00;102009.94;4786035;29;20486;-91
2023/12/27 00:20:55;;;;;;;3.77;1.87;;;;;;;3.82;100.00;102018.50;4781665;29;20061;-93
2023/12/27 00:23:59;;;;;;;5.27;2.23;;;;;;;3.78;100.00;102022.72;4786010;29;20042;-92
2023/12/27 00:26:47;;;;;;;5.97;2.33;;;;;;;3.75;100.00;102017.50;4799967;29;20061;-93
2023/12/27 00:29:48;;;;;;;5.90;2.50;;;;;;;3.73;100.00;102014.91;4776332;29;20126;-92
2023/12/27 00:32:20;;;;;;;5.15;2.80;;;;;;;3.70;100.00;102022.56;4784285;29;20058;-94
2023/12/27 00:37:56;;;;;;;;;;;;;;;;;;;;;
2023/12/27 00:41:06;;;;;;;5.77;2.60;;;;;;;3.70;100.00;102026.81;4921701;29;20036;-92
2023/12/27 00:47:23;;;;;;;5.23;3.10;;;;;;;3.67;100.00;102019.06;4875847;29;20518;-96
2023/12/27 00:50:07;;;;;;;5.70;2.70;;;;;;;3.67;100.00;102022.47;4855435;29;20033;-91
2023/12/27 00:52:49;;;;;;;5.23;2.83;;;;;;;3.67;100.00;102014.75;4873843;29;20045;-93
2023/12/27 00:56:01;;;;;;;6.63;3.20;;;;;;;3.66;100.00;102012.16;4857601;29;20132;-93
2023/12/27 00:58:35;;;;;;;;;;;;;;;3.72;100.00;102015.72;4874156;29;20063;-93
2023/12/27 01:01:06;;;;;;;5.37;2.97;;;;;;;3.68;100.00;102003.63;4889509;29;20367;-94
2023/12/27 01:03:52;;;;;;;7.75;2.78;;;;;;;3.72;100.00;102007.13;4917045;29;20021;-92
2023/12/27 01:06:18;;;;;;;6.30;2.90;;;;;;;3.72;100.00;102010.59;4923562;28;20113;-91
2023/12/27 01:08:43;;;;;;;7.47;3.30;;;;;;;3.69;100.00;102010.53;4917662;28;20412;-95
2023/12/27 01:11:10;;;;;;;6.37;2.90;;;;;;;3.67;100.00;102012.19;4906067;29;20039;-94
2023/12/27 01:14:29;;;;;;;7.83;3.00;;;;;;;3.65;100.00;102013.84;4885120;29;20028;-93
2023/12/27 01:20:51;;;;;;;;;;;;;;;;;;;;;
2023/12/27 01:23:55;;;;;;;4.30;2.53;;;;;;;3.60;100.00;102015.44;4863796;29;20145;-93
2023/12/27 01:26:29;;;;;;;5.60;2.63;;;;;;;3.55;100.00;102005.06;4871106;29;20414;-93
2023/12/27 01:29:07;;;;;;;5.77;2.70;;;;;;;3.52;100.00;102004.13;4882306;29;20100;-93
2023/12/27 01:32:03;;;;;;;5.20;2.90;;;;;;;3.51;100.00;102005.81;4893476;29;20029;-92
2023/12/27 01:35:05;;;;;;;5.80;2.80;;;;;;;3.51;100.00;101999.81;4882395;29;20116;-93
2023/12/27 01:37:47;;;;;;;;;;;;;;;;;;;;;
2023/12/27 01:43:42;;;;;;;;;;;;;;;3.53;100.00;102006.72;4880091;29;20426;-93
2023/12/27 01:46:27;;;;;;;;;;;;;;;3.53;100.00;101999.00;4925348;23;19922;-95
2023/12/27 01:55:27;;;;;;;;;;;;;;;3.52;100.00;102012.69;4904960;29;19998;-94
2023/12/27 01:58:22;;;;;;;;;;;;;;;3.53;100.00;102005.88;4866491;29;21341;-94
2023/12/27 02:01:11;;;;;;;;;;;;;;;3.52;100.00;102006.69;4805397;29;19924;-90
2023/12/27 02:06:36;;;;;;;;;;;;;;;3.51;100.00;102004.97;4897342;23;19930;-93
2023/12/27 02:09:30;;;;;;;;;;;;;;;3.48;100.00;102006.63;4897750;29;20331;-93
2023/12/27 02:12:32;;;;;;;;;;;;;;;3.48;100.00;101998.91;4895115;29;19915;-92
2023/12/27 02:15:30;;;;;;;;;;;;;;;3.47;100.00;101992.03;4908598;29;19965;-92
2023/12/27 02:21:57;;;;;;;;;;;;;;;3.51;100.00;101994.66;4856412;29;19947;-91
2023/12/27 02:27:54;;;;;;;;;;;;;;;3.53;100.00;101987.84;4896410;29;19915;-92
2023/12/27 02:30:31;;;;;;;;;;;;;;;3.54;100.00;101980.16;4862249;29;19919;-94
2023/12/27 02:33:03;;;;;;;;;;;;;;;3.56;100.00;101980.22;4892457;29;19976;-94
2023/12/27 02:50:07;;;;;;;;;;;;;;;3.68;100.00;101962.44;4948609;23;19923;-92
2023/12/27 02:55:22;;;;;;;;;;;;;;;3.70;100.00;101962.47;4894437;29;20376;-92
2023/12/27 02:58:25;;;;;;;;;;;;;;;3.71;100.00;101959.94;4875766;29;20371;-93
2023/12/27 03:00:59;;;;;;;;;;;;;;;3.73;100.00;101950.56;4881019;29;19923;-93
2023/12/27 03:06:17;;;;;;;;;;;;;;;3.73;100.00;101935.13;4881176;29;19922;-93
2023/12/27 03:11:56;;;;;;;;;;;;;;;3.74;100.00;101934.28;4884017;29;19942;-93
2023/12/27 03:14:47;;;;;;;;;;;;;;;3.76;100.00;101935.16;4876745;29;19922;-93
2023/12/27 03:22:42;;;;;;;;;;;;;;;3.84;100.00;101934.44;5197547;23;19923;-94
2023/12/27 03:31:18;;;;;;;;;;;;;;;3.98;100.00;101898.69;4921932;29;19922;-96
2023/12/27 03:33:43;;;;;;;;;;;;;;;4.01;100.00;101903.91;4904996;29;19914;-92
2023/12/27 03:36:08;;;;;;;;;;;;;;;4.02;100.00;101893.63;4905450;29;20398;-93
2023/12/27 03:38:34;;;;;;;;;;;;;;;4.03;100.00;101897.91;4920130;29;20290;-92
2023/12/27 03:40:59;;;;;;;;;;;;;;;4.03;100.00;101890.19;4901163;29;19918;-91
2023/12/27 03:43:24;;;;;;;;;;;;;;;4.05;100.00;101880.78;4907830;29;20009;-92
2023/12/27 03:45:53;;;;;;;;;;;;;;;4.07;100.00;101878.25;4922821;29;19970;-93
2023/12/27 03:48:19;;;;;;;;;;;;;;;4.07;100.00;101879.13;4921014;29;20290;-91
2023/12/27 03:50:44;;;;;;;;;;;;;;;4.08;100.00;101869.69;4903935;29;19915;-91
2023/12/27 03:53:09;;;;;;;;;;;;;;;4.07;100.00;101862.78;4921831;29;19923;-92
2023/12/27 03:55:35;;;;;;;;;;;;;;;4.07;100.00;101857.63;4908148;29;19930;-92
2023/12/27 03:58:00;;;;;;;;;;;;;;;4.07;100.00;101861.09;4908017;29;19914;-91
2023/12/27 04:00:25;;;;;;;;;;;;;;;4.08;100.00;101854.22;4921579;29;19980;-92
2023/12/27 04:02:50;;;;;;;;;;;;;;;4.06;100.00;101846.47;4909190;29;19918;-91
2023/12/27 04:05:16;;;;;;;;;;;;;;;4.06;100.00;101841.34;4905549;29;19974;-92
2023/12/27 04:07:41;;;;;;;;;;;;;;;4.07;100.00;101839.63;4925589;29;19922;-91
2023/12/27 04:10:06;;;;;;;;;;;;;;;4.06;100.00;101836.19;4905264;29;19914;-92
2023/12/27 04:12:32;;;;;;;;;;;;;;;4.05;100.00;101828.41;4910747;29;19993;-92
2023/12/27 04:14:57;;;;;;;;;;;;;;;4.03;100.00;101828.41;4923207;29;19930;-92
2023/12/27 04:17:22;;;;;;;;;;;;;;;4.04;100.00;101831.81;4907210;29;20394;-92
2023/12/27 04:19:47;;;;;;;;;;;;;;;4.04;100.00;101824.97;4908927;29;19915;-92
2023/12/27 04:22:13;;;;;;;;;;;;;;;4.06;100.00;101825.00;4905850;29;19934;-92
2023/12/27 04:24:38;;;;;;;;;;;;;;;4.09;100.00;101819.91;4923297;29;20395;-92
2023/12/27 04:27:03;;;;;;;;;;;;;;;4.08;100.00;101819.06;4924606;29;19931;-92
2023/12/27 04:29:29;;;;;;;;;;;;;;;4.10;100.00;101819.91;4924202;29;19923;-91
2023/12/27 04:31:54;;;;;;;;;;;;;;;4.13;100.00;101818.25;4924012;29;19923;-92
2023/12/27 04:34:19;;;;;;;;;;;;;;;4.14;100.00;101817.41;4908105;29;19926;-92
2023/12/27 04:36:45;;;;;;;;;;;;;;;4.15;100.00;101816.56;4924175;29;19915;-92
2023/12/27 04:39:10;;;;;;;;;;;;;;;4.15;100.00;101821.72;4909536;29;19921;-91
2023/12/27 04:41:35;;;;;;;;;;;;;;;4.17;100.00;101822.59;4902407;29;19938;-92
2023/12/27 04:44:00;;;;;;;;;;;;;;;4.19;100.00;101818.34;4922229;29;19922;-91
2023/12/27 04:46:26;;;;;;;;;;;;;;;4.21;100.00;101811.53;4906986;29;20275;-91
2023/12/27 04:48:51;;;;;;;;;;;;;;;4.22;100.00;101810.69;4922696;29;19942;-91
2023/12/27 04:51:16;;;;;;;;;;;;;;;4.23;100.00;101808.13;4906089;29;20323;-93
2023/12/27 04:53:42;;;;;;;;;;;;;;;4.24;100.00;101799.56;4921468;29;19977;-92
2023/12/27 04:56:07;;;;;;;;;;;;;;;4.25;100.00;101796.13;4906295;29;19915;-92
2023/12/27 04:58:35;;;;;;;;;;;;;;;4.26;100.00;101799.59;4905270;29;20009;-92
2023/12/27 05:01:02;;;;;;;;;;;;;;;4.28;100.00;101803.03;4918734;29;19918;-92
2023/12/27 05:03:28;;;;;;;;;;;;;;;4.28;100.00;101800.47;4923512;29;19987;-92
2023/12/27 05:05:53;;;;;;;;;;;;;;;4.32;100.00;101796.25;4906199;29;19966;-91
2023/12/27 05:08:18;;;;;;;;;;;;;;;4.33;100.00;101798.84;4921485;29;19970;-93
2023/12/27 05:10:43;;;;;;;;;;;;;;;4.36;100.00;101787.69;4905993;29;19914;-92
2023/12/27 05:13:09;;;;;;;;;;;;;;;4.39;100.00;101788.63;4921603;29;20550;-92
2023/12/27 05:15:34;;;;;;;;;;;;;;;4.40;100.00;101777.50;4907353;29;19923;-92
2023/12/27 05:17:59;;;;;;;;;;;;;;;4.43;100.00;101779.22;4923715;29;19918;-92
2023/12/27 05:20:24;;;;;;;;;;;;;;;4.44;100.00;101770.66;4924424;29;20404;-92
2023/12/27 05:22:50;;;;;;;;;;;;;;;4.48;100.00;101761.25;4907519;29;19919;-92
2023/12/27 05:25:15;;;;;;;;;;;;;;;4.48;100.00;101759.56;4912282;29;20394;-92
2023/12/27 05:27:40;;;;;;;;;;;;;;;4.50;100.00;101763.03;4923677;29;19925;-92
2023/12/27 05:30:08;;;;;;;;;;;;;;;4.52;100.00;101760.47;4935518;28;19911;-92
2023/12/27 05:32:33;;;;;;;;;;;;;;;4.54;100.00;101756.19;4929934;29;19918;-93
2023/12/27 05:35:00;;;;;;;;;;;;;;;4.56;100.00;101759.66;4912559;29;19914;-92
2023/12/27 05:37:25;;;;;;;;;;;;;;;4.55;100.00;101756.22;4907719;29;20298;-91
2023/12/27 05:39:50;;;;;;;;;;;;;;;4.54;100.00;101757.06;4920928;29;19930;-92
2023/12/27 05:42:15;;;;;;;;;;;;;;;4.54;100.00;101757.06;4926267;29;20057;-92
2023/12/27 05:44:41;;;;;;;;;;;;;;;4.56;100.00;101757.09;4926797;29;19915;-93
2023/12/27 05:47:07;;;;;;;;;;;;;;;4.56;100.00;101760.53;4905787;29;20005;-93
2023/12/27 05:49:33;;;;;;;;;;;;;;;4.55;100.00;101756.22;4907118;29;20419;-93
2023/12/27 05:51:59;;;;;;;;;;;;;;;4.56;100.00;101754.50;4905315;29;19915;-93
2023/12/27 05:54:26;;;;;;;;;;;;;;;4.58;100.00;101752.81;4909146;29;20005;-92
2023/12/27 05:56:51;;;;;;;;;;;;;;;4.61;100.00;101752.84;4921964;29;19914;-92
2023/12/27 05:59:17;;;;;;;;;;;;;;;4.62;100.00;101739.13;4907157;29;19967;-93
2023/12/27 06:01:46;;;;;;;;;;;;;;;4.63;100.00;101735.69;4918958;29;19914;-92
2023/12/27 06:04:24;;;;;;;;;;;;;;;4.65;100.00;101739.16;4904320;29;19937;-92
2023/12/27 06:06:49;;;;;;;;;;;;;;;4.65;100.00;101733.16;4902581;29;20295;-92
2023/12/27 06:09:18;;;;;;;;;;;;;;;4.65;100.00;101728.84;4903544;29;20005;-92
2023/12/27 06:11:44;;;;;;;;;;;;;;;4.65;100.00;101720.28;4906099;29;20289;-92
2023/12/27 06:14:09;;;;;;;;;;;;;;;4.66;100.00;101719.44;4905452;29;19923;-92
2023/12/27 06:16:34;;;;;;;;;;;;;;;4.67;100.00;101710.84;4923987;29;19915;-92
2023/12/27 06:19:00;;;;;;;;;;;;;;;4.66;100.00;101706.53;4900308;29;19918;-91
2023/12/27 06:21:25;;;;;;;;;;;;;;;4.67;100.00;101703.97;4924118;29;20014;-91
2023/12/27 06:23:50;;;;;;;;;;;;;;;4.65;100.00;101705.66;4922511;29;19962;-91
2023/12/27 06:26:15;;;;;;;;;;;;;;;4.65;100.00;101697.06;4903864;29;20348;-92
2023/12/27 06:28:42;;;;;;;;;;;;;;;4.65;100.00;101697.91;4901042;29;20397;-91
2023/12/27 06:31:08;;;;;;;;;;;;;;;4.63;100.00;101686.72;4902770;29;19945;-91
2023/12/27 06:33:34;;;;;;;;;;;;;;;4.63;100.00;101679.00;4906337;29;19914;-92
2023/12/27 06:36:00;;;;;;;;;;;;;;;4.63;100.00;101683.28;4905517;29;19941;-92
2023/12/27 06:38:26;;;;;;;;;;;;;;;4.63;100.00;101672.97;4908009;29;19961;-92
2023/12/27 06:40:51;;;;;;;;;;;;;;;4.64;100.00;101670.41;4907952;29;20009;-92
2023/12/27 06:43:19;;;;;;;;;;;;;;;4.64;100.00;101660.09;4928743;29;19970;-92
2023/12/27 06:45:44;;;;;;;;;;;;;;;4.64;100.00;101659.25;4921744;29;19951;-92
2023/12/27 06:48:10;;;;;;;;;;;;;;;4.64;100.00;101652.38;4910813;29;20017;-92
2023/12/27 06:50:35;;;;;;;;;;;;;;;4.66;100.00;101647.25;4909125;29;19918;-92
2023/12/27 06:53:00;;;;;;;;;;;;;;;4.65;100.00;101643.78;4921200;29;19922;-91
2023/12/27 06:55:26;;;;;;;;;;;;;;;4.65;100.00;101641.22;4923133;29;19915;-92
2023/12/27 06:57:53;;;;;;;;;;;;;;;4.64;100.00;101642.06;4907033;29;20362;-92
2023/12/27 07:00:18;;;;;;;;;;;;;;;4.64;100.00;101644.63;4903008;29;19922;-92
2023/12/27 07:02:44;;;;;;;;;;;;;;;4.63;100.00;101637.75;4909154;29;20321;-93
2023/12/27 07:05:10;;;;;;;;;;;;;;;4.64;100.00;101634.34;4922741;29;19915;-92
2023/12/27 07:07:35;;;;;;;;;;;;;;;4.66;100.00;101637.78;4905183;29;19914;-93
2023/12/27 07:10:01;;;;;;;;;;;;;;;4.69;100.00;101627.53;4925800;29;19970;-93
2023/12/27 07:12:27;;;;;;;;;;;;;;;4.72;100.00;101626.69;4906014;29;19923;-93
2023/12/27 07:14:52;;;;;;;;;;;;;;;4.74;100.00;101626.72;4909471;29;19915;-93
2023/12/27 07:17:20;;;;;;;;;;;;;;;4.75;100.00;101624.16;4908138;29;19922;-92
2023/12/27 07:19:45;;;;;;;;;;;;;;;4.77;100.00;101621.59;4907551;29;20298;-92
2023/12/27 07:22:12;;;;;;;;;;;;;;;4.79;100.00;101628.50;4923153;29;19926;-93
2023/12/27 07:24:37;;;;;;;;;;;;;;;4.84;100.00;101625.97;4920924;29;19919;-94
2023/12/27 07:27:03;;;;;;;;;;;;;;;4.86;100.00;101619.13;4922551;29;19922;-92
2023/12/27 07:29:28;;;;;;;;;;;;;;;4.87;100.00;101618.25;4913133;29;19915;-92
2023/12/27 07:31:54;;;;;;;;;;;;;;;4.88;100.00;101616.53;4928508;29;19929;-94
2023/12/27 07:34:19;;;;;;;;;;;;;;;4.91;100.00;101616.56;4913685;29;20252;-93
2023/12/27 07:36:44;;;;;;;;;;;;;;;4.91;100.00;101612.31;4909325;29;20390;-93
2023/12/27 07:39:09;;;;;;;;;;;;;;;4.95;100.00;101610.59;4926048;29;19966;-91
2023/12/27 07:41:35;;;;;;;;;;;;;;;4.96;100.00;101613.19;4911871;29;19918;-93
2023/12/27 07:44:00;;;;;;;;;;;;;;;4.97;100.00;101622.66;4912189;29;20327;-92
2023/12/27 07:46:26;;;;;;;;;;;;;;;4.99;100.00;101613.22;4912107;29;19915;-93
2023/12/27 07:48:51;;;;;;;;;;;;;;;5.03;100.00;101613.25;4909740;29;20359;-93
2023/12/27 07:51:16;;;;;;;;;;;;;;;5.05;100.00;101614.16;4944608;28;19911;-92
2023/12/27 07:53:41;;;;;;;;;;;;;;;5.07;100.00;101615.88;4934267;28;19974;-92
2023/12/27 07:56:15;;;;;;;;;;;;;;;5.09;100.00;101614.19;4912047;29;19943;-93
2023/12/27 07:58:40;;;;;;;;;;;;;;;5.12;100.00;101610.78;4912041;29;19922;-92
2023/12/27 08:01:06;;;;;;;;;;;;;;;5.14;100.00;101612.53;4912057;29;20289;-93
2023/12/27 08:03:31;;;;;;;;;;;;;;;5.16;100.00;101615.09;4928481;29;19926;-93
2023/12/27 08:05:56;;;;;;;;;;;;;;;5.19;100.00;101604.81;4909981;29;20378;-93
2023/12/27 08:08:22;;;;;;;;;;;;;;;5.20;100.00;101609.13;4910265;29;19918;-92
2023/12/27 08:10:47;;;;;;;;;;;;;;;5.24;100.00;101604.84;4926752;29;19966;-92
2023/12/27 08:13:12;;;;;;;;;;;;;;;5.28;100.00;101607.50;4924357;29;19923;-92
2023/12/27 08:15:37;;;;;;;;;;;;;;;5.30;100.00;101603.19;4923875;29;19950;-93
2023/12/27 08:18:03;;;;;;;;;;;;;;;5.33;100.00;101599.78;4928859;29;20304;-92
2023/12/27 08:20:29;;;;;;;;;;;;;;;5.36;100.00;101597.22;4911878;29;19915;-93
2023/12/27 08:22:54;;;;;;;;;;;;;;;5.38;100.00;101592.91;4909321;29;19925;-92
2023/12/27 08:25:20;;;;;;;;;;;;;;;5.40;100.00;101588.66;4910122;29;20355;-92
2023/12/27 08:27:45;;;;;;;;;;;;;;;5.44;100.00;101589.56;4907728;29;20005;-93
2023/12/27 08:30:10;;;;;;;;;;;;;;;5.47;100.00;101581.81;4913205;29;20366;-92
2023/12/27 08:32:36;;;;;;;;;;;;;;;5.49;100.00;101574.94;4908197;29;19915;-92
2023/12/27 08:35:01;;;;;;;;;;;;;;;5.52;100.00;101577.56;4905898;29;19923;-92
2023/12/27 08:37:26;;;;;;;;;;;;;;;5.56;100.00;101568.97;4926643;29;19931;-92
2023/12/27 08:39:52;;;;;;;;;;;;;;;5.58;100.00;101551.78;4908742;29;19915;-92
2023/12/27 08:42:17;;;;;;;;;;;;;;;5.61;100.00;101554.41;4923350;29;20287;-92
2023/12/27 08:44:42;;;;;;;;;;;;;;;5.64;100.00;101547.53;4922338;29;20075;-93
2023/12/27 08:47:08;;;;;;;;;;;;;;;5.66;100.00;101548.38;4924061;29;19915;-92
2023/12/27 08:49:42;;;;;;;;;;;;;;;5.69;100.00;101545.81;4910366;29;19943;-93
2023/12/27 08:52:08;;;;;;;;;;;;;;;5.72;100.00;101538.09;4906345;29;19914;-93
2023/12/27 08:54:34;;;;;;;;;;;;;;;5.73;100.00;101527.78;4911154;29;20385;-92
2023/12/27 08:56:59;;;;;;;;;;;;;;;5.76;100.00;101529.53;4908873;29;20013;-92
2023/12/27 08:59:24;;;;;;;;;;;;;;;5.78;100.00;101532.97;4924402;29;20393;-92
2023/12/27 09:01:55;;;;;;;;;;;;;;;5.81;100.00;101529.53;4911224;29;19919;-93
2023/12/27 09:04:21;;;;;;;;;;;;;;;5.84;100.00;101522.66;4911568;29;19919;-94
2023/12/27 09:06:46;;;;;;;;;;;;;;;5.87;100.00;101520.09;4928556;29;20310;-92
2023/12/27 09:09:11;;;;;;;;;;;;;;;5.89;100.00;101526.16;4927167;29;19914;-92
2023/12/27 09:11:37;;;;;;;;;;;;;;;5.92;100.00;101517.53;4923625;29;19915;-95
2023/12/27 09:14:05;;;;;;;;;;;;;;;5.96;100.00;101506.38;4913597;29;19914;-95
2023/12/27 09:16:30;;;;;;;;;;;;;;;5.97;100.00;101512.41;4929981;29;19918;-96
2023/12/27 09:18:56;;;;;;;;;;;;;;;5.99;100.00;101518.41;4911989;29;19915;-94
2023/12/27 09:21:23;;;;;;;;;;;;;;;5.99;100.00;101513.25;4911983;29;20355;-94
2023/12/27 09:23:49;;;;;;;;;;;;;;;6.01;100.00;101522.78;4912794;29;20402;-94
2023/12/27 09:26:14;;;;;;;;;;;;;;;6.05;100.00;101521.06;4911386;29;19922;-95
2023/12/27 09:28:39;;;;;;;;;;;;;;;6.08;100.00;101509.03;4912995;29;19930;-94
2023/12/27 09:31:05;;;;;;;;;;;;;;;6.09;100.00;101491.81;4910748;29;19966;-94
2023/12/27 09:33:30;;;;;;;;;;;;;;;6.12;100.00;101494.41;4911233;29;20306;-95
2023/12/27 09:35:55;;;;;;;;;;;;;;;6.14;100.00;101494.41;4926828;29;19914;-93
2023/12/27 09:38:21;;;;;;;;;;;;;;;6.14;100.00;101490.13;4925670;29;20025;-96
2023/12/27 09:40:49;;;;;;;;;;;;;;;6.17;100.00;101492.69;4909863;29;20417;-93
2023/12/27 09:43:15;;;;;;;;;;;;;;;6.17;100.00;101487.53;4907218;29;19919;-94
2023/12/27 09:45:41;;;;;;;;;;;;;;;6.19;100.00;101472.91;4910028;29;19923;-93
2023/12/27 09:48:54;;;;;;;;;;;;;;;6.21;100.00;101484.09;4906942;29;19914;-93
2023/12/27 09:50:58;;;;;;;;;;;;;;;6.23;100.00;101482.38;4920299;29;19918;-94
2023/12/27 09:53:24;;;;;;;;;;;;;;;6.26;100.00;101471.19;4910898;29;20009;-96
2023/12/27 09:55:50;;;;;;;;;;;;;;;6.29;100.00;101478.09;4909576;29;19918;-95
2023/12/27 09:58:16;;;;;;;;;;;;;;;6.32;100.00;101475.53;4909025;29;19914;-94
2023/12/27 10:00:43;;;;;;;;;;;;;;;6.34;100.00;101473.78;4908624;29;19914;-94
2023/12/27 10:03:12;;;;;;;;;;;;;;;6.37;100.00;101478.97;4911150;29;19923;-93
2023/12/27 10:05:47;;;;;;;;;;;;;;;6.40;100.00;101468.63;4914426;29;20430;-95
2023/12/27 10:08:13;;;;;;;;;;;;;;;6.44;100.00;101472.97;4907035;29;19914;-93
2023/12/27 10:10:40;;;;;;;;;;;;;;;6.48;100.00;101476.41;4903629;29;19929;-93
2023/12/27 10:13:08;;;;;;;;;;;;;;;6.52;100.00;101471.22;4908953;29;19953;-92
2023/12/27 10:15:33;;;;;;;;;;;;;;;6.58;100.00;101472.97;4907138;29;19919;-92
2023/12/27 10:17:58;;;;;;;;;;;;;;;6.62;100.00;101473.84;4923678;29;19966;-93
2023/12/27 10:20:36;;;;;;;;;;;;;;;6.64;100.00;101467.81;4920526;29;20001;-93
2023/12/27 10:23:06;;;;;;;;;;;;;;;6.68;100.00;101458.31;4921362;29;19939;-94
2023/12/27 10:25:43;;;;;;;;;;;;;;;6.73;100.00;101466.09;4910635;29;19922;-96
2023/12/27 10:28:11;;;;;;;;;;;;;;;6.76;100.00;101466.94;4921079;29;20010;-93
2023/12/27 10:30:36;;;;;;;;;;;;;;;6.80;100.00;101447.13;4909084;29;19915;-92
2023/12/27 10:33:02;;;;;;;;;;;;;;;6.86;100.00;101451.41;4906205;29;20070;-91
2023/12/27 10:35:28;;;;;;;;;;;;;;;6.90;100.00;101441.09;4902228;29;20066;-91
2023/12/27 10:38:04;;;;;;;;;;;;;;;6.94;100.00;101429.00;4906962;29;19915;-93
2023/12/27 10:40:30;;;;;;;;;;;;;;;7.01;100.00;101432.44;4924399;29;19915;-92
2023/12/27 10:42:55;;;;;;;;;;;;;;;7.07;100.00;101422.94;4907630;29;19927;-92
2023/12/27 10:45:23;;;;;;;;;;;;;;;7.13;100.00;101419.47;4905810;29;20376;-93
2023/12/27 10:47:51;;;;;;;;;;;;;;;7.20;100.00;101410.84;4923420;29;19915;-92
2023/12/27 10:50:22;;;;;;;;;;;;;;;7.28;100.00;101414.28;4909929;29;20014;-94
2023/12/27 10:53:02;;;;;;;;;;;;;;;7.34;100.00;101395.28;4905914;29;19983;-91
2023/12/27 10:55:28;;;;;;;;;;;;;;;7.42;100.00;101401.28;4920575;29;20009;-91
2023/12/27 10:58:01;;;;;;;;;;;;;;;7.46;100.00;101407.31;4921306;29;19950;-93
2023/12/27 11:00:29;;;;;;;;;;;;;;;7.51;100.00;101404.72;4905917;29;19915;-91
2023/12/27 11:02:57;;;;;;;;;;;;;;;7.56;100.00;101397.78;4921802;29;19930;-92
2023/12/27 11:05:24;;;;;;;;;;;;;;;7.59;100.00;101390.88;4910322;29;19961;-91
2023/12/27 11:07:52;;;;;;;;;;;;;;;7.62;100.00;101387.41;4910495;29;20006;-93
2023/12/27 11:10:17;;;;;;;;;;;;;;;7.61;100.00;101383.09;4906527;29;20252;-94
2023/12/27 11:12:49;;;;;;;;;;;;;;;7.65;100.00;101384.81;4910752;29;19930;-94
2023/12/27 11:15:16;;;;;;;;;;;;;;;7.67;100.00;101375.31;4907124;29;20319;-93
2023/12/27 11:17:43;;;;;;;;;;;;;;;7.68;100.00;101365.78;4920954;29;20019;-92
2023/12/27 11:20:14;;;;;;;;;;;;;;;7.68;100.00;101369.25;4907737;29;19965;-91
2023/12/27 11:22:40;;;;;;;;;;;;;;;7.68;100.00;101374.44;4918530;29;19919;-91
2023/12/27 11:25:15;;;;;;;;;;;;;;;7.69;100.00;101373.53;4905614;29;19915;-94
2023/12/27 11:27:41;;;;;;;;;;;;;;;7.68;100.00;101366.66;4907126;29;19923;-91
2023/12/27 11:30:09;;;;;;;;;;;;;;;7.69;100.00;101358.00;4908847;29;20017;-93
2023/12/27 11:32:36;;;;;;;;;;;;;;;7.70;100.00;101341.59;4921676;29;19915;-93
2023/12/27 11:35:30;;;;;;;;;;;;;;;7.71;100.00;101339.88;4906996;29;19994;-92
2023/12/27 11:38:24;;;;;;;;;;;;;;;7.70;100.00;101341.59;4908805;29;19981;-92
2023/12/27 11:41:43;;;;;;;;;;;;;;;;;;;;;
2023/12/27 11:44:03;;;;;;;;;;;;;;;7.74;100.00;101345.91;4918535;29;20355;-93
2023/12/27 11:46:30;;;;;;;;;;;;;;;7.77;100.00;101331.22;4905392;29;19923;-93
2023/12/27 11:48:58;;;;;;;;;;;;;;;7.79;100.00;101329.47;4906862;29;19919;-92
2023/12/27 11:51:34;;;;;;;;;;;;;;;7.82;100.00;101330.31;4903923;29;19915;-91
2023/12/27 11:53:59;;;;;;;;;;;;;;;7.82;100.00;101317.34;4917392;29;19998;-91
2023/12/27 11:56:32;;;;;;;;;;;;;;;7.83;100.00;101329.44;4903547;29;19958;-89
2023/12/27 11:59:01;;;;;;;;;;;;;;;7.86;100.00;101323.38;4916908;29;19923;-90
2023/12/27 12:01:35;;;;;;;;;;;;;;;7.86;100.00;101311.28;4918423;29;19938;-90
2023/12/27 12:04:15;;;;;;;;;;;;;;;7.85;100.00;101300.94;4904669;29;19919;-94
2023/12/27 12:06:53;;;;;;;;;;;;;;;7.87;100.00;101294.00;4904933;29;19919;-94
2023/12/27 12:09:20;;;;;;;;;;;;;;;7.86;100.00;101287.97;4905140;29;19954;-91
2023/12/27 12:11:46;;;;;;;;;;;;;;;7.88;100.00;101290.53;4917217;29;19922;-92
2023/12/27 12:14:11;;;;;;;;;;;;;;;7.88;100.00;101287.94;4902902;29;20235;-92
2023/12/27 12:16:38;;;;;;;;;;;;;;;7.88;100.00;101281.06;4894577;29;20355;-92
2023/12/27 12:19:03;;;;;;;;;;;;;;;7.89;100.00;101272.41;4917597;29;20005;-92
2023/12/27 12:21:29;;;;;;;;;;;;;;;7.91;100.00;101264.63;4902572;29;19950;-91
2023/12/27 12:23:54;;;;;;;;;;;;;;;7.92;100.00;101261.16;4898472;29;19918;-92
2023/12/27 12:26:20;;;;;;;;;;;;;;;7.94;100.00;101254.25;4920640;29;19923;-95
2023/12/27 12:28:55;;;;;;;;;;;;;;;7.97;100.00;101245.56;4900510;29;19930;-92
2023/12/27 12:31:20;;;;;;;;;;;;;;;7.97;100.00;101236.09;4917175;29;20378;-92
2023/12/27 12:33:48;;;;;;;;;;;;;;;7.99;100.00;101218.78;4922620;29;19942;-95
2023/12/27 12:36:13;;;;;;;;;;;;;;;7.99;100.00;101226.56;4904717;29;19915;-94
2023/12/27 12:38:39;;;;;;;;;;;;;;;7.99;100.00;101223.97;4903318;29;20425;-91
2023/12/27 12:41:04;;;;;;;;;;;;;;;8.01;100.00;101229.13;4915267;29;19915;-90
2023/12/27 12:43:38;;;;;;;;;;;;;;;8.01;100.00;101230.00;4919118;29;19922;-94
2023/12/27 12:46:04;;;;;;;;;;;;;;;8.03;100.00;101227.38;4916839;29;20240;-89
2023/12/27 12:48:30;;;;;;;;;;;;;;;8.03;100.00;101220.47;4918415;29;19930;-91
2023/12/27 12:51:08;;;;;;;;;;;;;;;8.04;100.00;101210.97;4900289;29;20330;-94
2023/12/27 12:53:34;;;;;;;;;;;;;;;8.05;100.00;101210.09;4899778;29;19914;-92
2023/12/27 12:55:59;;;;;;;;;;;;;;;8.06;100.00;101196.28;4899976;29;19930;-92
2023/12/27 12:58:25;;;;;;;;;;;;;;;8.07;100.00;101186.75;4913107;29;19918;-93
2023/12/27 13:00:51;;;;;;;;;;;;;;;8.11;100.00;101175.50;4898202;29;20009;-91
2023/12/27 13:03:16;;;;;;;;;;;;;;;8.12;100.00;101169.44;4915596;29;20339;-91
2023/12/27 13:05:42;;;;;;;;;;;;;;;8.13;100.00;101181.53;4916935;29;19930;-91
2023/12/27 13:08:07;;;;;;;;;;;;;;;8.12;100.00;101164.25;4903974;29;19958;-92
2023/12/27 13:10:34;;;;;;;;;;;;;;;8.15;100.00;101174.59;4897775;29;20013;-91
2023/12/27 13:13:00;;;;;;;;;;;;;;;8.15;100.00;101165.06;4897435;29;20001;-91
2023/12/27 13:15:25;;;;;;;;;;;;;;;8.17;100.00;101163.31;4898076;29;19975;-91
2023/12/27 13:17:50;;;;;;;;;;;;;;;8.17;100.00;101152.97;4911227;29;20363;-91
2023/12/27 13:20:16;;;;;;;;;;;;;;;8.18;100.00;101152.09;4896190;29;19938;-92
2023/12/27 13:22:44;;;;;;;;;;;;;;;8.21;100.00;101146.00;4898484;29;20252;-93
2023/12/27 13:25:10;;;;;;;;;;;;;;;8.19;100.00;101142.59;4915508;29;20255;-94
2023/12/27 13:27:35;;;;;;;;;;;;;;;8.19;100.00;101140.84;4913840;29;20459;-94
2023/12/27 13:30:01;;;;;;;;;;;;;;;8.19;100.00;101135.66;4896067;29;20009;-92
2023/12/27 13:32:26;;;;;;;;;;;;;;;8.22;100.00;101132.16;4899218;29;19958;-92
2023/12/27 13:34:52;;;;;;;;;;;;;;;8.22;100.00;101123.56;4914501;29;21702;-93
2023/12/27 13:37:18;;;;;;;;;;;;;;;8.20;100.00;101120.97;4916356;29;19914;-93
2023/12/27 13:39:44;;;;;;;;;;;;;;;8.20;100.00;101120.97;4897422;29;20075;-92
2023/12/27 13:42:09;;;;;;;;;;;;;;;8.18;100.00;101125.31;4896885;29;20435;-90
2023/12/27 13:44:36;;;;;;;;;;;;;;;8.16;100.00;101103.75;4914828;29;19923;-91
2023/12/27 13:47:01;;;;;;;;;;;;;;;8.17;100.00;101106.31;4913689;29;19950;-90
2023/12/27 13:49:27;;;;;;;;;;;;;;;8.15;100.00;101108.06;4899262;29;19969;-93
2023/12/27 13:51:52;;;;;;;;;;;;;;;8.15;100.00;101096.84;4895506;29;19919;-89
2023/12/27 13:54:19;;;;;;;;;;;;;;;8.13;100.00;101086.47;4896129;29;19922;-92
2023/12/27 13:56:47;;;;;;;;;;;;;;;8.14;100.00;101100.31;4897691;29;19983;-90
2023/12/27 13:59:12;;;;;;;;;;;;;;;8.12;100.00;101096.88;4913295;29;19962;-92